createdAt,value
2017-11-14T00:00:01.119Z,7.39
2017-11-14T00:00:27.243Z,7.5
2017-11-14T00:00:53.367Z,7.42
2017-11-14T00:01:19.482Z,7.43
2017-11-14T00:01:45.599Z,7.54
2017-11-14T00:02:11.723Z,7.48
2017-11-14T00:02:37.839Z,7.42
2017-11-14T00:03:03.962Z,7.36
2017-11-14T00:03:30.087Z,7.43
2017-11-14T00:03:56.201Z,7.45
2017-11-14T00:04:22.341Z,7.4
2017-11-14T00:04:48.463Z,7.45
2017-11-14T00:05:14.583Z,7.43
2017-11-14T00:05:40.701Z,7.42
2017-11-14T00:06:06.823Z,7.42
2017-11-14T00:06:32.942Z,7.47
2017-11-14T00:06:59.064Z,7.38
2017-11-14T00:07:25.193Z,7.47
2017-11-14T00:07:51.302Z,7.39
2017-11-14T00:08:17.431Z,7.35
2017-11-14T00:08:43.561Z,7.43
2017-11-14T00:09:09.659Z,7.39
2017-11-14T00:09:35.787Z,7.45
2017-11-14T00:10:01.897Z,7.47
2017-11-14T00:10:28.017Z,7.47
2017-11-14T00:10:54.133Z,7.47
2017-11-14T00:11:20.275Z,7.51
2017-11-14T00:11:46.397Z,7.36
2017-11-14T00:12:12.518Z,7.51
2017-11-14T00:12:38.631Z,7.45
2017-11-14T00:13:04.752Z,7.42
2017-11-14T00:13:30.874Z,7.45
2017-11-14T00:13:56.996Z,7.42
2017-11-14T00:14:23.114Z,7.38
2017-11-14T00:14:49.243Z,7.48
2017-11-14T00:15:15.359Z,7.42
2017-11-14T00:15:41.483Z,7.39
2017-11-14T00:16:07.621Z,7.35
2017-11-14T00:16:33.758Z,7.35
2017-11-14T00:16:59.878Z,7.38
2017-11-14T00:17:26.003Z,7.33
2017-11-14T00:17:52.118Z,7.31
2017-11-14T00:18:18.246Z,7.31
2017-11-14T00:18:44.358Z,7.32
2017-11-14T00:19:10.497Z,7.29
2017-11-14T00:19:36.622Z,7.28
2017-11-14T00:20:02.766Z,7.31
2017-11-14T00:20:28.886Z,7.31
2017-11-14T00:20:55.002Z,7.23
2017-11-14T00:21:21.125Z,7.18
2017-11-14T00:21:47.247Z,7.18
2017-11-14T00:22:13.361Z,7.2
2017-11-14T00:22:39.481Z,7.18
2017-11-14T00:23:05.602Z,7.31
2017-11-14T00:23:31.725Z,7.29
2017-11-14T00:23:57.840Z,7.21
2017-11-14T00:24:23.964Z,7.28
2017-11-14T00:24:50.085Z,7.18
2017-11-14T00:25:16.208Z,7.2
2017-11-14T00:25:42.338Z,7.18
2017-11-14T00:26:08.478Z,7.29
2017-11-14T00:26:34.576Z,7.15
2017-11-14T00:27:00.692Z,7.23
2017-11-14T00:27:26.821Z,7.23
2017-11-14T00:27:52.940Z,7.18
2017-11-14T00:28:19.066Z,7.2
2017-11-14T00:28:45.179Z,7.17
2017-11-14T00:29:11.297Z,7.15
2017-11-14T00:29:37.420Z,7.23
2017-11-14T00:30:03.535Z,7.23
2017-11-14T00:30:29.717Z,7.18
2017-11-14T00:30:55.840Z,7.21
2017-11-14T00:31:21.957Z,7.2
2017-11-14T00:31:48.089Z,7.2
2017-11-14T00:32:14.209Z,7.2
2017-11-14T00:32:40.346Z,7.2
2017-11-14T00:33:06.466Z,7.2
2017-11-14T00:33:32.566Z,7.17
2017-11-14T00:33:58.682Z,7.21
2017-11-14T00:34:24.805Z,7.1
2017-11-14T00:34:50.931Z,7.15
2017-11-14T00:35:17.045Z,7.11
2017-11-14T00:35:43.164Z,7.05
2017-11-14T00:36:09.286Z,7.17
2017-11-14T00:36:35.412Z,7.2
2017-11-14T00:37:01.531Z,7.15
2017-11-14T00:37:27.653Z,7.13
2017-11-14T00:37:53.767Z,7.06
2017-11-14T00:38:19.892Z,7.15
2017-11-14T00:38:46.005Z,7.2
2017-11-14T00:39:12.130Z,7.24
2017-11-14T00:39:38.246Z,7.23
2017-11-14T00:40:04.364Z,7.2
2017-11-14T00:40:30.489Z,7.18
2017-11-14T00:40:56.616Z,7.29
2017-11-14T00:41:22.726Z,7.2
2017-11-14T00:41:48.846Z,7.25
2017-11-14T00:42:14.973Z,7.31
2017-11-14T00:42:41.091Z,7.29
2017-11-14T00:43:07.207Z,7.32
2017-11-14T00:43:33.332Z,7.29
2017-11-14T00:43:59.456Z,7.29
2017-11-14T00:44:25.574Z,7.31
2017-11-14T00:44:51.691Z,7.31
2017-11-14T00:45:17.805Z,7.25
2017-11-14T00:45:43.930Z,7.17
2017-11-14T00:46:10.045Z,7.24
2017-11-14T00:46:36.168Z,7.24
2017-11-14T00:47:02.288Z,7.17
2017-11-14T00:47:28.410Z,7.2
2017-11-14T00:47:54.530Z,7.23
2017-11-14T00:48:20.653Z,7.15
2017-11-14T00:48:46.773Z,7.24
2017-11-14T00:49:12.889Z,7.18
2017-11-14T00:49:39.012Z,7.15
2017-11-14T00:50:05.126Z,7.2
2017-11-14T00:50:31.250Z,7.2
2017-11-14T00:50:57.377Z,7.18
2017-11-14T00:51:23.493Z,7.18
2017-11-14T00:51:49.615Z,7.18
2017-11-14T00:52:15.735Z,7.15
2017-11-14T00:52:41.845Z,7.17
2017-11-14T00:53:07.960Z,7.17
2017-11-14T00:53:34.084Z,7.2
2017-11-14T00:54:00.198Z,7.24
2017-11-14T00:54:26.313Z,7.15
2017-11-14T00:54:52.436Z,7.2
2017-11-14T00:55:18.558Z,7.15
2017-11-14T00:55:44.678Z,7.13
2017-11-14T00:56:10.793Z,7.17
2017-11-14T00:56:36.917Z,7.15
2017-11-14T00:57:03.034Z,7.23
2017-11-14T00:57:29.155Z,7.18
2017-11-14T00:57:55.274Z,7.18
2017-11-14T00:58:21.401Z,7.13
2017-11-14T00:58:47.525Z,7.15
2017-11-14T00:59:13.641Z,7.15
2017-11-14T00:59:39.765Z,7.15
2017-11-14T01:00:05.880Z,7.17
2017-11-14T01:00:32.006Z,7.13
2017-11-14T01:00:58.121Z,7.2
2017-11-14T01:01:24.272Z,7.24
2017-11-14T01:01:50.388Z,7.21
2017-11-14T01:02:16.508Z,7.17
2017-11-14T01:02:42.621Z,7.14
2017-11-14T01:03:08.745Z,7.18
2017-11-14T01:03:34.864Z,7.17
2017-11-14T01:04:00.980Z,7.28
2017-11-14T01:04:27.106Z,7.28
2017-11-14T01:04:53.223Z,7.35
2017-11-14T01:05:19.338Z,7.36
2017-11-14T01:05:45.458Z,7.28
2017-11-14T01:06:11.580Z,7.25
2017-11-14T01:06:37.701Z,7.48
2017-11-14T01:07:03.815Z,7.42
2017-11-14T01:07:29.941Z,7.42
2017-11-14T01:07:56.054Z,7.43
2017-11-14T01:08:22.174Z,7.48
2017-11-14T01:08:48.294Z,7.4
2017-11-14T01:09:14.416Z,7.36
2017-11-14T01:09:40.535Z,7.36
2017-11-14T01:10:06.660Z,7.43
2017-11-14T01:10:32.786Z,7.39
2017-11-14T01:10:58.908Z,7.29
2017-11-14T01:11:25.029Z,7.24
2017-11-14T01:11:51.164Z,7.31
2017-11-14T01:12:17.282Z,7.38
2017-11-14T01:12:43.407Z,7.29
2017-11-14T01:13:09.542Z,7.31
2017-11-14T01:13:35.665Z,7.36
2017-11-14T01:14:01.788Z,7.43
2017-11-14T01:14:27.908Z,7.43
2017-11-14T01:14:54.044Z,7.39
2017-11-14T01:15:20.164Z,7.25
2017-11-14T01:15:46.279Z,7.31
2017-11-14T01:16:12.408Z,7.23
2017-11-14T01:16:38.562Z,7.28
2017-11-14T01:17:04.690Z,7.28
2017-11-14T01:17:30.816Z,7.35
2017-11-14T01:17:56.960Z,7.42
2017-11-14T01:18:23.100Z,7.42
2017-11-14T01:18:49.217Z,7.4
2017-11-14T01:19:15.336Z,7.28
2017-11-14T01:19:41.460Z,7.39
2017-11-14T01:20:07.582Z,7.31
2017-11-14T01:20:33.693Z,7.42
2017-11-14T01:20:59.818Z,7.35
2017-11-14T01:21:25.936Z,7.38
2017-11-14T01:21:52.051Z,7.43
2017-11-14T01:22:18.180Z,7.32
2017-11-14T01:22:44.293Z,7.28
2017-11-14T01:23:10.414Z,7.28
2017-11-14T01:23:36.535Z,7.31
2017-11-14T01:24:02.658Z,7.45
2017-11-14T01:24:28.778Z,7.43
2017-11-14T01:24:54.897Z,7.39
2017-11-14T01:25:21.026Z,7.39
2017-11-14T01:25:47.137Z,7.36
2017-11-14T01:26:13.278Z,7.4
2017-11-14T01:26:39.397Z,7.42
2017-11-14T01:27:05.515Z,7.4
2017-11-14T01:27:31.641Z,7.42
2017-11-14T01:27:57.761Z,7.5
2017-11-14T01:28:23.877Z,7.45
2017-11-14T01:28:50.004Z,7.48
2017-11-14T01:29:16.124Z,7.45
2017-11-14T01:29:42.246Z,7.43
2017-11-14T01:30:08.366Z,7.4
2017-11-14T01:30:34.476Z,7.38
2017-11-14T01:31:00.599Z,7.42
2017-11-14T01:31:26.720Z,7.47
2017-11-14T01:31:52.837Z,7.38
2017-11-14T01:32:18.955Z,7.47
2017-11-14T01:32:45.098Z,7.42
2017-11-14T01:33:11.217Z,7.38
2017-11-14T01:33:37.343Z,7.36
2017-11-14T01:34:03.464Z,7.5
2017-11-14T01:34:29.575Z,7.32
2017-11-14T01:34:55.716Z,7.38
2017-11-14T01:35:21.831Z,7.4
2017-11-14T01:35:47.955Z,7.31
2017-11-14T01:36:14.080Z,7.29
2017-11-14T01:36:40.219Z,7.33
2017-11-14T01:37:06.346Z,7.38
2017-11-14T01:37:32.465Z,7.39
2017-11-14T01:37:58.581Z,7.36
2017-11-14T01:38:24.706Z,7.35
2017-11-14T01:38:50.823Z,7.36
2017-11-14T01:39:16.937Z,7.4
2017-11-14T01:39:43.079Z,7.38
2017-11-14T01:40:09.198Z,7.4
2017-11-14T01:40:35.317Z,7.4
2017-11-14T01:41:01.438Z,7.43
2017-11-14T01:41:27.553Z,7.42
2017-11-14T01:41:53.679Z,7.4
2017-11-14T01:42:19.796Z,7.45
2017-11-14T01:42:45.909Z,7.47
2017-11-14T01:43:12.038Z,7.32
2017-11-14T01:43:38.159Z,7.4
2017-11-14T01:44:04.281Z,7.43
2017-11-14T01:44:30.393Z,7.42
2017-11-14T01:44:56.517Z,7.5
2017-11-14T01:45:22.645Z,7.25
2017-11-14T01:45:48.756Z,7.25
2017-11-14T01:46:14.879Z,7.29
2017-11-14T01:46:41.003Z,7.32
2017-11-14T01:47:07.124Z,7.29
2017-11-14T01:47:33.237Z,7.32
2017-11-14T01:47:59.362Z,7.33
2017-11-14T01:48:25.478Z,7.28
2017-11-14T01:48:51.604Z,7.28
2017-11-14T01:49:17.716Z,7.29
2017-11-14T01:49:43.843Z,7.33
2017-11-14T01:50:09.962Z,7.24
2017-11-14T01:50:36.076Z,7.35
2017-11-14T01:51:02.222Z,7.39
2017-11-14T01:51:28.364Z,7.38
2017-11-14T01:51:54.539Z,7.31
2017-11-14T01:52:20.683Z,7.39
2017-11-14T01:52:46.822Z,7.33
2017-11-14T01:53:12.967Z,7.33
2017-11-14T01:53:39.109Z,7.29
2017-11-14T01:54:05.251Z,7.28
2017-11-14T01:54:31.396Z,7.36
2017-11-14T01:54:57.536Z,7.4
2017-11-14T01:55:23.686Z,7.31
2017-11-14T01:55:49.832Z,7.36
2017-11-14T01:56:15.970Z,7.23
2017-11-14T01:56:42.117Z,7.31
2017-11-14T01:57:08.259Z,7.29
2017-11-14T01:57:34.398Z,7.45
2017-11-14T01:58:00.540Z,7.43
2017-11-14T01:58:26.689Z,7.35
2017-11-14T01:58:52.826Z,7.35
2017-11-14T01:59:18.967Z,7.33
2017-11-14T01:59:45.120Z,7.45
2017-11-14T02:00:11.253Z,7.38
2017-11-14T02:00:37.405Z,7.31
2017-11-14T02:01:03.537Z,7.29
2017-11-14T02:01:29.685Z,7.33
2017-11-14T02:01:55.863Z,7.35
2017-11-14T02:02:22.000Z,7.28
2017-11-14T02:02:48.173Z,7.24
2017-11-14T02:03:14.312Z,7.29
2017-11-14T02:03:40.455Z,7.17
2017-11-14T02:04:06.601Z,7.23
2017-11-14T02:04:32.745Z,7.18
2017-11-14T02:04:58.911Z,7.15
2017-11-14T02:05:25.056Z,7.24
2017-11-14T02:05:51.198Z,7.17
2017-11-14T02:06:17.346Z,7.18
2017-11-14T02:06:43.489Z,7.13
2017-11-14T02:07:09.632Z,7.17
2017-11-14T02:07:35.770Z,7.13
2017-11-14T02:08:01.913Z,7.15
2017-11-14T02:08:28.063Z,7.15
2017-11-14T02:08:54.205Z,7.11
2017-11-14T02:09:20.342Z,7.14
2017-11-14T02:09:46.510Z,7.18
2017-11-14T02:10:12.649Z,7.17
2017-11-14T02:10:38.792Z,7.13
2017-11-14T02:11:04.970Z,7.14
2017-11-14T02:11:31.114Z,7.17
2017-11-14T02:11:57.257Z,7.15
2017-11-14T02:12:23.398Z,7.21
2017-11-14T02:12:49.543Z,7.11
2017-11-14T02:13:15.686Z,7.14
2017-11-14T02:13:41.835Z,7.11
2017-11-14T02:14:07.980Z,7.1
2017-11-14T02:14:34.138Z,7.13
2017-11-14T02:15:00.313Z,7.07
2017-11-14T02:15:26.457Z,7.11
2017-11-14T02:15:52.599Z,7.07
2017-11-14T02:16:18.771Z,7.02
2017-11-14T02:16:44.907Z,7.07
2017-11-14T02:17:11.056Z,7.1
2017-11-14T02:17:37.194Z,7.15
2017-11-14T02:18:03.346Z,7.11
2017-11-14T02:18:29.492Z,7.15
2017-11-14T02:18:55.633Z,7.11
2017-11-14T02:19:21.780Z,7.05
2017-11-14T02:19:47.917Z,7.11
2017-11-14T02:20:14.059Z,7.1
2017-11-14T02:20:40.211Z,7.15
2017-11-14T02:21:06.356Z,7.18
2017-11-14T02:21:32.496Z,7.06
2017-11-14T02:21:58.647Z,7.07
2017-11-14T02:22:24.783Z,7.13
2017-11-14T02:22:50.925Z,6.99
2017-11-14T02:23:17.072Z,7
2017-11-14T02:23:43.212Z,7
2017-11-14T02:24:09.361Z,6.95
2017-11-14T02:24:35.507Z,7.06
2017-11-14T02:25:01.646Z,7
2017-11-14T02:25:27.785Z,6.97
2017-11-14T02:25:53.932Z,6.97
2017-11-14T02:26:20.069Z,6.97
2017-11-14T02:26:46.210Z,6.96
2017-11-14T02:27:12.355Z,7
2017-11-14T02:27:38.492Z,6.97
2017-11-14T02:28:04.641Z,6.96
2017-11-14T02:28:30.783Z,6.99
2017-11-14T02:28:56.925Z,6.96
2017-11-14T02:29:23.065Z,6.97
2017-11-14T02:29:49.213Z,7
2017-11-14T02:30:15.386Z,6.96
2017-11-14T02:30:41.598Z,6.97
2017-11-14T02:31:07.691Z,6.87
2017-11-14T02:31:33.881Z,6.89
2017-11-14T02:32:00.041Z,6.88
2017-11-14T02:32:26.176Z,6.88
2017-11-14T02:32:52.316Z,6.96
2017-11-14T02:33:18.467Z,6.92
2017-11-14T02:33:44.611Z,6.96
2017-11-14T02:34:10.748Z,6.96
2017-11-14T02:34:36.894Z,6.99
2017-11-14T02:35:03.038Z,7
2017-11-14T02:35:29.181Z,6.99
2017-11-14T02:35:55.327Z,7.03
2017-11-14T02:36:21.493Z,7.02
2017-11-14T02:36:47.641Z,6.96
2017-11-14T02:37:13.779Z,7
2017-11-14T02:37:39.919Z,7.02
2017-11-14T02:38:06.095Z,6.99
2017-11-14T02:38:32.235Z,7.05
2017-11-14T02:38:58.380Z,6.99
2017-11-14T02:39:24.552Z,6.96
2017-11-14T02:39:50.690Z,7.02
2017-11-14T02:40:16.835Z,7.05
2017-11-14T02:40:42.999Z,7.06
2017-11-14T02:41:09.137Z,6.97
2017-11-14T02:41:35.285Z,6.99
2017-11-14T02:42:01.421Z,6.96
2017-11-14T02:42:27.567Z,6.99
2017-11-14T02:42:53.712Z,6.95
2017-11-14T02:43:19.857Z,6.96
2017-11-14T02:43:45.997Z,6.92
2017-11-14T02:44:12.149Z,6.87
2017-11-14T02:44:38.296Z,6.85
2017-11-14T02:45:04.467Z,6.92
2017-11-14T02:45:30.605Z,6.88
2017-11-14T02:45:56.741Z,6.84
2017-11-14T02:46:22.887Z,6.78
2017-11-14T02:46:49.035Z,6.89
2017-11-14T02:47:15.171Z,6.84
2017-11-14T02:47:41.314Z,6.81
2017-11-14T02:48:07.451Z,6.75
2017-11-14T02:48:33.599Z,6.75
2017-11-14T02:48:59.748Z,6.75
2017-11-14T02:49:25.891Z,6.82
2017-11-14T02:49:52.040Z,6.74
2017-11-14T02:50:18.213Z,6.78
2017-11-14T02:50:44.352Z,6.93
2017-11-14T02:51:10.491Z,6.87
2017-11-14T02:51:36.639Z,6.92
2017-11-14T02:52:02.779Z,6.88
2017-11-14T02:52:28.915Z,6.84
2017-11-14T02:52:55.072Z,6.82
2017-11-14T02:53:21.211Z,6.77
2017-11-14T02:53:47.353Z,6.75
2017-11-14T02:54:13.517Z,6.81
2017-11-14T02:54:39.662Z,6.82
2017-11-14T02:55:05.810Z,6.75
2017-11-14T02:55:31.948Z,6.82
2017-11-14T02:55:58.099Z,6.78
2017-11-14T02:56:24.233Z,6.78
2017-11-14T02:56:50.399Z,6.75
2017-11-14T02:57:16.544Z,6.77
2017-11-14T02:57:42.682Z,6.78
2017-11-14T02:58:08.830Z,6.79
2017-11-14T02:58:34.974Z,6.88
2017-11-14T02:59:01.113Z,6.79
2017-11-14T02:59:27.257Z,6.85
2017-11-14T02:59:53.429Z,6.81
2017-11-14T03:00:19.571Z,6.95
2017-11-14T03:00:45.741Z,6.82
2017-11-14T03:01:11.888Z,6.84
2017-11-14T03:01:38.056Z,6.84
2017-11-14T03:02:04.197Z,6.85
2017-11-14T03:02:30.344Z,6.88
2017-11-14T03:02:56.488Z,6.87
2017-11-14T03:03:22.636Z,6.89
2017-11-14T03:03:48.782Z,6.84
2017-11-14T03:04:14.919Z,6.84
2017-11-14T03:04:41.071Z,6.87
2017-11-14T03:05:07.209Z,6.82
2017-11-14T03:05:33.359Z,6.85
2017-11-14T03:05:59.498Z,6.85
2017-11-14T03:06:25.636Z,6.88
2017-11-14T03:06:51.804Z,6.95
2017-11-14T03:07:17.949Z,6.89
2017-11-14T03:07:44.084Z,6.81
2017-11-14T03:08:10.229Z,6.82
2017-11-14T03:08:36.383Z,6.78
2017-11-14T03:09:02.530Z,6.82
2017-11-14T03:09:28.669Z,6.81
2017-11-14T03:09:54.813Z,6.77
2017-11-14T03:10:20.956Z,6.78
2017-11-14T03:10:47.104Z,6.77
2017-11-14T03:11:13.253Z,6.82
2017-11-14T03:11:39.393Z,6.81
2017-11-14T03:12:05.563Z,6.75
2017-11-14T03:12:31.698Z,6.77
2017-11-14T03:12:57.836Z,6.77
2017-11-14T03:13:23.977Z,6.75
2017-11-14T03:13:50.127Z,6.74
2017-11-14T03:14:16.275Z,6.79
2017-11-14T03:14:42.414Z,6.87
2017-11-14T03:15:08.574Z,6.82
2017-11-14T03:15:34.705Z,6.78
2017-11-14T03:16:00.849Z,6.79
2017-11-14T03:16:26.999Z,6.74
2017-11-14T03:16:53.165Z,6.88
2017-11-14T03:17:19.313Z,6.82
2017-11-14T03:17:45.461Z,6.82
2017-11-14T03:18:11.624Z,6.82
2017-11-14T03:18:37.773Z,6.81
2017-11-14T03:19:03.913Z,6.88
2017-11-14T03:19:30.048Z,6.88
2017-11-14T03:19:56.198Z,6.84
2017-11-14T03:20:22.346Z,6.84
2017-11-14T03:20:48.482Z,6.95
2017-11-14T03:21:14.625Z,6.92
2017-11-14T03:21:40.767Z,6.96
2017-11-14T03:22:06.912Z,6.99
2017-11-14T03:22:33.053Z,6.96
2017-11-14T03:22:59.200Z,7
2017-11-14T03:23:25.341Z,6.93
2017-11-14T03:23:51.481Z,6.97
2017-11-14T03:24:17.625Z,6.89
2017-11-14T03:24:43.772Z,6.88
2017-11-14T03:25:09.946Z,7.03
2017-11-14T03:25:36.109Z,6.96
2017-11-14T03:26:02.255Z,6.95
2017-11-14T03:26:28.395Z,6.95
2017-11-14T03:26:54.542Z,6.93
2017-11-14T03:27:20.713Z,6.92
2017-11-14T03:27:46.857Z,6.92
2017-11-14T03:28:13.007Z,6.96
2017-11-14T03:28:39.148Z,6.92
2017-11-14T03:29:05.288Z,6.99
2017-11-14T03:29:31.436Z,6.92
2017-11-14T03:29:57.579Z,6.92
2017-11-14T03:30:23.746Z,6.89
2017-11-14T03:30:49.894Z,6.88
2017-11-14T03:31:16.025Z,6.88
2017-11-14T03:31:42.170Z,6.87
2017-11-14T03:32:08.306Z,6.92
2017-11-14T03:32:34.470Z,6.87
2017-11-14T03:33:00.596Z,6.88
2017-11-14T03:33:26.734Z,6.85
2017-11-14T03:33:52.887Z,6.84
2017-11-14T03:34:19.037Z,6.85
2017-11-14T03:34:45.171Z,6.88
2017-11-14T03:35:11.318Z,6.82
2017-11-14T03:35:37.461Z,6.77
2017-11-14T03:36:03.607Z,6.77
2017-11-14T03:36:29.743Z,6.79
2017-11-14T03:36:55.892Z,6.82
2017-11-14T03:37:22.034Z,6.81
2017-11-14T03:37:48.170Z,6.7
2017-11-14T03:38:14.316Z,6.78
2017-11-14T03:38:40.486Z,6.75
2017-11-14T03:39:06.628Z,6.79
2017-11-14T03:39:32.775Z,6.77
2017-11-14T03:39:58.912Z,6.85
2017-11-14T03:40:25.059Z,6.87
2017-11-14T03:40:51.200Z,6.81
2017-11-14T03:41:17.343Z,6.84
2017-11-14T03:41:43.487Z,6.81
2017-11-14T03:42:09.631Z,6.92
2017-11-14T03:42:35.770Z,6.93
2017-11-14T03:43:01.908Z,6.92
2017-11-14T03:43:28.058Z,6.82
2017-11-14T03:43:54.201Z,6.85
2017-11-14T03:44:20.342Z,6.84
2017-11-14T03:44:46.485Z,6.75
2017-11-14T03:45:12.629Z,6.79
2017-11-14T03:45:38.775Z,6.78
2017-11-14T03:46:04.917Z,6.81
2017-11-14T03:46:31.059Z,6.81
2017-11-14T03:46:57.203Z,6.75
2017-11-14T03:47:23.350Z,6.77
2017-11-14T03:47:49.494Z,6.69
2017-11-14T03:48:15.635Z,6.72
2017-11-14T03:48:41.779Z,6.77
2017-11-14T03:49:07.927Z,6.78
2017-11-14T03:49:34.070Z,6.78
2017-11-14T03:50:00.234Z,6.82
2017-11-14T03:50:26.399Z,6.79
2017-11-14T03:50:52.539Z,6.79
2017-11-14T03:51:18.677Z,6.88
2017-11-14T03:51:44.819Z,6.81
2017-11-14T03:52:10.971Z,6.87
2017-11-14T03:52:37.129Z,6.82
2017-11-14T03:53:03.267Z,6.82
2017-11-14T03:53:29.403Z,6.81
2017-11-14T03:53:55.546Z,6.87
2017-11-14T03:54:21.695Z,6.89
2017-11-14T03:54:47.834Z,6.81
2017-11-14T03:55:13.982Z,6.88
2017-11-14T03:55:40.123Z,6.85
2017-11-14T03:56:06.268Z,6.81
2017-11-14T03:56:32.401Z,6.84
2017-11-14T03:56:58.541Z,6.81
2017-11-14T03:57:24.692Z,6.7
2017-11-14T03:57:50.838Z,6.56
2017-11-14T03:58:16.973Z,6.67
2017-11-14T03:58:43.123Z,6.63
2017-11-14T03:59:09.264Z,6.69
2017-11-14T03:59:35.411Z,6.66
2017-11-14T04:00:01.550Z,6.57
2017-11-14T04:00:27.710Z,6.72
2017-11-14T04:00:53.859Z,6.57
2017-11-14T04:01:20.000Z,6.75
2017-11-14T04:01:46.137Z,6.62
2017-11-14T04:02:12.282Z,6.57
2017-11-14T04:02:38.436Z,6.72
2017-11-14T04:03:04.566Z,6.7
2017-11-14T04:03:30.710Z,6.57
2017-11-14T04:03:56.858Z,6.7
2017-11-14T04:04:23.023Z,6.62
2017-11-14T04:04:49.165Z,6.59
2017-11-14T04:05:15.312Z,6.72
2017-11-14T04:05:41.476Z,6.67
2017-11-14T04:06:07.626Z,6.64
2017-11-14T04:06:33.764Z,6.59
2017-11-14T04:06:59.933Z,6.6
2017-11-14T04:07:26.059Z,6.6
2017-11-14T04:07:52.223Z,6.59
2017-11-14T04:08:18.365Z,6.62
2017-11-14T04:08:44.515Z,6.6
2017-11-14T04:09:10.644Z,6.59
2017-11-14T04:09:36.786Z,6.62
2017-11-14T04:10:02.939Z,6.57
2017-11-14T04:10:29.068Z,6.56
2017-11-14T04:10:55.222Z,6.51
2017-11-14T04:11:21.359Z,6.62
2017-11-14T04:11:47.512Z,6.57
2017-11-14T04:12:13.653Z,6.54
2017-11-14T04:12:39.798Z,6.57
2017-11-14T04:13:05.938Z,6.6
2017-11-14T04:13:32.083Z,6.56
2017-11-14T04:13:58.231Z,6.48
2017-11-14T04:14:24.370Z,6.51
2017-11-14T04:14:50.530Z,6.42
2017-11-14T04:15:16.661Z,6.41
2017-11-14T04:15:42.798Z,6.39
2017-11-14T04:16:08.951Z,6.48
2017-11-14T04:16:35.086Z,6.51
2017-11-14T04:17:01.220Z,6.42
2017-11-14T04:17:27.375Z,6.51
2017-11-14T04:17:53.520Z,6.45
2017-11-14T04:18:19.660Z,6.45
2017-11-14T04:18:45.797Z,6.42
2017-11-14T04:19:11.941Z,6.42
2017-11-14T04:19:38.082Z,6.48
2017-11-14T04:20:04.232Z,6.3
2017-11-14T04:20:30.372Z,6.3
2017-11-14T04:20:56.515Z,6.27
2017-11-14T04:21:22.664Z,6.3
2017-11-14T04:21:48.802Z,6.35
2017-11-14T04:22:14.942Z,6.22
2017-11-14T04:22:41.091Z,6.26
2017-11-14T04:23:07.233Z,6.2
2017-11-14T04:23:33.397Z,6.3
2017-11-14T04:23:59.545Z,6.14
2017-11-14T04:24:25.716Z,6.19
2017-11-14T04:24:51.824Z,6.2
2017-11-14T04:25:17.973Z,6.07
2017-11-14T04:25:44.115Z,6.16
2017-11-14T04:26:10.254Z,6.16
2017-11-14T04:26:36.395Z,6.12
2017-11-14T04:27:02.543Z,6.04
2017-11-14T04:27:28.704Z,6.17
2017-11-14T04:27:54.853Z,6.17
2017-11-14T04:28:20.997Z,6.12
2017-11-14T04:28:47.144Z,6.24
2017-11-14T04:29:13.307Z,6.22
2017-11-14T04:29:39.444Z,6.19
2017-11-14T04:30:05.584Z,6.24
2017-11-14T04:30:31.733Z,6.14
2017-11-14T04:30:57.877Z,6.16
2017-11-14T04:31:24.017Z,6.08
2017-11-14T04:31:50.193Z,6.11
2017-11-14T04:32:16.355Z,6.09
2017-11-14T04:32:42.497Z,6.04
2017-11-14T04:33:08.641Z,5.99
2017-11-14T04:33:34.780Z,6.07
2017-11-14T04:34:00.918Z,6.01
2017-11-14T04:34:27.064Z,6.04
2017-11-14T04:34:53.209Z,6.09
2017-11-14T04:35:19.358Z,6.04
2017-11-14T04:35:45.498Z,6.05
2017-11-14T04:36:11.637Z,5.94
2017-11-14T04:36:37.787Z,5.87
2017-11-14T04:37:03.924Z,5.98
2017-11-14T04:37:30.071Z,5.91
2017-11-14T04:37:56.210Z,5.9
2017-11-14T04:38:22.358Z,5.91
2017-11-14T04:38:48.502Z,5.94
2017-11-14T04:39:14.652Z,5.86
2017-11-14T04:39:40.790Z,5.83
2017-11-14T04:40:06.930Z,5.8
2017-11-14T04:40:33.075Z,5.86
2017-11-14T04:40:59.213Z,5.87
2017-11-14T04:41:25.355Z,5.89
2017-11-14T04:41:51.509Z,5.83
2017-11-14T04:42:17.646Z,5.76
2017-11-14T04:42:43.784Z,5.79
2017-11-14T04:43:09.932Z,5.82
2017-11-14T04:43:36.072Z,5.76
2017-11-14T04:44:02.215Z,5.73
2017-11-14T04:44:28.360Z,5.79
2017-11-14T04:44:54.505Z,5.73
2017-11-14T04:45:20.669Z,5.8
2017-11-14T04:45:46.811Z,5.69
2017-11-14T04:46:12.961Z,5.66
2017-11-14T04:46:39.097Z,5.64
2017-11-14T04:47:05.246Z,5.64
2017-11-14T04:47:31.384Z,5.71
2017-11-14T04:47:57.534Z,5.64
2017-11-14T04:48:23.681Z,5.69
2017-11-14T04:48:49.819Z,5.75
2017-11-14T04:49:15.958Z,5.69
2017-11-14T04:49:42.109Z,5.69
2017-11-14T04:50:08.248Z,5.72
2017-11-14T04:50:34.422Z,5.79
2017-11-14T04:51:00.560Z,5.68
2017-11-14T04:51:26.708Z,5.66
2017-11-14T04:51:52.849Z,5.66
2017-11-14T04:52:18.995Z,5.64
2017-11-14T04:52:45.141Z,5.66
2017-11-14T04:53:11.279Z,5.68
2017-11-14T04:53:37.430Z,5.72
2017-11-14T04:54:03.569Z,5.69
2017-11-14T04:54:29.734Z,5.71
2017-11-14T04:54:55.874Z,5.65
2017-11-14T04:55:22.021Z,5.69
2017-11-14T04:55:48.162Z,5.71
2017-11-14T04:56:14.311Z,5.66
2017-11-14T04:56:40.447Z,5.72
2017-11-14T04:57:06.592Z,5.68
2017-11-14T04:57:32.735Z,5.69
2017-11-14T04:57:58.874Z,5.72
2017-11-14T04:58:25.019Z,5.69
2017-11-14T04:58:51.162Z,5.8
2017-11-14T04:59:17.307Z,5.68
2017-11-14T04:59:43.453Z,5.71
2017-11-14T05:00:09.590Z,5.72
2017-11-14T05:00:35.732Z,5.73
2017-11-14T05:01:01.881Z,5.8
2017-11-14T05:01:28.028Z,5.8
2017-11-14T05:01:54.163Z,5.8
2017-11-14T05:02:20.304Z,5.76
2017-11-14T05:02:46.455Z,5.68
2017-11-14T05:03:12.595Z,5.76
2017-11-14T05:03:38.746Z,5.79
2017-11-14T05:04:04.883Z,5.84
2017-11-14T05:04:31.020Z,5.72
2017-11-14T05:04:57.189Z,5.68
2017-11-14T05:05:23.334Z,5.8
2017-11-14T05:05:49.475Z,5.8
2017-11-14T05:06:15.621Z,5.79
2017-11-14T05:06:41.765Z,5.76
2017-11-14T05:07:07.902Z,5.84
2017-11-14T05:07:34.049Z,5.82
2017-11-14T05:08:00.189Z,5.79
2017-11-14T05:08:26.329Z,5.79
2017-11-14T05:08:52.484Z,5.76
2017-11-14T05:09:18.646Z,5.72
2017-11-14T05:09:44.791Z,5.72
2017-11-14T05:10:10.926Z,5.68
2017-11-14T05:10:37.086Z,5.8
2017-11-14T05:11:03.221Z,5.82
2017-11-14T05:11:29.358Z,5.84
2017-11-14T05:11:55.523Z,5.83
2017-11-14T05:12:21.674Z,5.75
2017-11-14T05:12:47.840Z,5.79
2017-11-14T05:13:13.981Z,5.73
2017-11-14T05:13:40.130Z,5.71
2017-11-14T05:14:06.277Z,5.69
2017-11-14T05:14:32.416Z,5.79
2017-11-14T05:14:58.553Z,5.73
2017-11-14T05:15:24.699Z,5.69
2017-11-14T05:15:50.839Z,5.72
2017-11-14T05:16:16.982Z,5.79
2017-11-14T05:16:43.126Z,5.79
2017-11-14T05:17:09.274Z,5.83
2017-11-14T05:17:35.423Z,5.8
2017-11-14T05:18:01.557Z,5.84
2017-11-14T05:18:27.701Z,5.93
2017-11-14T05:18:53.851Z,5.87
2017-11-14T05:19:19.988Z,5.87
2017-11-14T05:19:46.127Z,5.91
2017-11-14T05:20:12.283Z,5.87
2017-11-14T05:20:38.442Z,5.73
2017-11-14T05:21:04.596Z,5.86
2017-11-14T05:21:30.730Z,5.8
2017-11-14T05:21:56.881Z,5.8
2017-11-14T05:22:23.047Z,5.79
2017-11-14T05:22:49.194Z,5.8
2017-11-14T05:23:15.331Z,5.76
2017-11-14T05:23:41.473Z,5.8
2017-11-14T05:24:07.623Z,5.65
2017-11-14T05:24:33.765Z,5.76
2017-11-14T05:24:59.906Z,5.71
2017-11-14T05:25:26.040Z,5.69
2017-11-14T05:25:52.212Z,5.68
2017-11-14T05:26:18.352Z,5.62
2017-11-14T05:26:44.495Z,5.65
2017-11-14T05:27:10.643Z,5.65
2017-11-14T05:27:36.790Z,5.66
2017-11-14T05:28:02.930Z,5.62
2017-11-14T05:28:29.073Z,5.62
2017-11-14T05:28:55.213Z,5.65
2017-11-14T05:29:21.369Z,5.66
2017-11-14T05:29:47.542Z,5.66
2017-11-14T05:30:13.656Z,5.65
2017-11-14T05:30:39.807Z,5.65
2017-11-14T05:31:05.944Z,5.66
2017-11-14T05:31:32.090Z,5.54
2017-11-14T05:31:58.237Z,5.5
2017-11-14T05:32:24.377Z,5.59
2017-11-14T05:32:50.518Z,5.57
2017-11-14T05:33:16.666Z,5.62
2017-11-14T05:33:42.815Z,5.56
2017-11-14T05:34:08.957Z,5.54
2017-11-14T05:34:35.099Z,5.56
2017-11-14T05:35:01.245Z,5.57
2017-11-14T05:35:27.379Z,5.54
2017-11-14T05:35:53.523Z,5.54
2017-11-14T05:36:19.668Z,5.57
2017-11-14T05:36:45.811Z,5.61
2017-11-14T05:37:11.947Z,5.61
2017-11-14T05:37:38.088Z,5.53
2017-11-14T05:38:04.229Z,5.56
2017-11-14T05:38:30.374Z,5.61
2017-11-14T05:38:56.513Z,5.56
2017-11-14T05:39:22.664Z,5.54
2017-11-14T05:39:48.809Z,5.59
2017-11-14T05:40:14.946Z,5.59
2017-11-14T05:40:41.092Z,5.51
2017-11-14T05:41:07.236Z,5.54
2017-11-14T05:41:33.379Z,5.64
2017-11-14T05:41:59.519Z,5.53
2017-11-14T05:42:25.667Z,5.65
2017-11-14T05:42:51.806Z,5.53
2017-11-14T05:43:17.971Z,5.51
2017-11-14T05:43:44.117Z,5.56
2017-11-14T05:44:10.257Z,5.59
2017-11-14T05:44:36.408Z,5.54
2017-11-14T05:45:02.543Z,5.53
2017-11-14T05:45:28.694Z,5.57
2017-11-14T05:45:54.841Z,5.53
2017-11-14T05:46:20.977Z,5.48
2017-11-14T05:46:47.126Z,5.53
2017-11-14T05:47:13.267Z,5.57
2017-11-14T05:47:39.410Z,5.57
2017-11-14T05:48:05.557Z,5.51
2017-11-14T05:48:31.695Z,5.53
2017-11-14T05:48:57.843Z,5.59